Altair, Texas
Current Conditions -  °F | °C
As of 8:55 PM on Thursday 18 Dec 2014 (Local Time) from K66R Reporting Station
Overcast Overcast  
Wind Chill: 61°   Ceiling: 1400
Heat Index: 61°   Visibility: 10mi
Dew Point: 58°   Wind: 6mph
Humidity: 89%   Direction: 20°NNE
Pressure: 30.04"   Gusts: NA
Location:  29.57°N, 96.45°W
Report Text: K66R 190255Z AUTO 02005KT 10SM OVC014 16/14 A3004 RMK AO2 T01600142
Loading
Personal Weather Stations






























Interactive Weather Map New forecast layout! Learn more

10-Day Weather Forecast

Advertisements
Track Severe Weather on mobile